地図

経路データ

SID SEASON NUMBER BASIN SUBBASIN NAME ISO_TIME NATURE LAT LON WMO_WIND WMO_PRES WMO_AGENCY TRACK_TYPE DIST2LAND LANDFALL IFLAG USA_AGENCY USA_ATCF_ID USA_LAT USA_LON USA_RECORD USA_STATUS USA_WIND USA_PRES USA_SSHS USA_R34_NE USA_R34_SE USA_R34_SW USA_R34_NW USA_R50_NE USA_R50_SE USA_R50_SW USA_R50_NW USA_R64_NE USA_R64_SE USA_R64_SW USA_R64_NW USA_POCI USA_ROCI USA_RMW USA_EYE TOKYO_LAT TOKYO_LON TOKYO_GRADE TOKYO_WIND TOKYO_PRES TOKYO_R50_DIR TOKYO_R50_LONG TOKYO_R50_SHORT TOKYO_R30_DIR TOKYO_R30_LONG TOKYO_R30_SHORT TOKYO_LAND CMA_LAT CMA_LON CMA_CAT CMA_WIND CMA_PRES HKO_LAT HKO_LON HKO_CAT HKO_WIND HKO_PRES NEWDELHI_LAT NEWDELHI_LON NEWDELHI_GRADE NEWDELHI_WIND NEWDELHI_PRES NEWDELHI_CI NEWDELHI_DP NEWDELHI_POCI REUNION_LAT REUNION_LON REUNION_TYPE REUNION_WIND REUNION_PRES REUNION_TNUM REUNION_CI REUNION_RMW REUNION_R34_NE REUNION_R34_SE REUNION_R34_SW REUNION_R34_NW REUNION_R50_NE REUNION_R50_SE REUNION_R50_SW REUNION_R50_NW REUNION_R64_NE REUNION_R64_SE REUNION_R64_SW REUNION_R64_NW BOM_LAT BOM_LON BOM_TYPE BOM_WIND BOM_PRES BOM_TNUM BOM_CI BOM_RMW BOM_R34_NE BOM_R34_SE BOM_R34_SW BOM_R34_NW BOM_R50_NE BOM_R50_SE BOM_R50_SW BOM_R50_NW BOM_R64_NE BOM_R64_SE BOM_R64_SW BOM_R64_NW BOM_ROCI BOM_POCI BOM_EYE BOM_POS_METHOD BOM_PRES_METHOD NADI_LAT NADI_LON NADI_CAT NADI_WIND NADI_PRES WELLINGTON_LAT WELLINGTON_LON WELLINGTON_WIND WELLINGTON_PRES DS824_LAT DS824_LON DS824_STAGE DS824_WIND DS824_PRES TD9636_LAT TD9636_LON TD9636_STAGE TD9636_WIND TD9636_PRES TD9635_LAT TD9635_LON TD9635_WIND TD9635_PRES TD9635_ROCI NEUMANN_LAT NEUMANN_LON NEUMANN_CLASS NEUMANN_WIND NEUMANN_PRES MLC_LAT MLC_LON MLC_CLASS MLC_WIND MLC_PRES USA_GUST BOM_GUST BOM_GUST_PER REUNION_GUST REUNION_GUST_PER USA_SEAHGT USA_SEARAD_NE USA_SEARAD_SE USA_SEARAD_SW USA_SEARAD_NW STORM_SPEED STORM_DIR
1984285N17089 1984 97 NI BB NOT_NAMED 1984-10-10 12:00:00 NR 16.8000 88.6000 main 426 398 O_________O___ jtwc_io IO021984 16.8000 88.6000 25 -1 16.8000 88.6000 1 25 7 0
1984285N17089 1984 97 NI BB NOT_NAMED 1984-10-10 15:00:00 NR 17.1263 88.6000 main 398 371 P_________P___ IO021984 17.2025 88.6000 25 -1 17.0500 88.6000 1 25 6 0
1984285N17089 1984 97 NI BB NOT_NAMED 1984-10-10 18:00:00 NR 17.3950 88.6000 main 371 354 O_________P___ jtwc_io IO021984 17.5000 88.6000 25 -1 17.2900 88.6000 1 25 4 2
1984285N17089 1984 97 NI BB NOT_NAMED 1984-10-10 21:00:00 NR 17.5700 88.6000 main 354 346 P_________P___ IO021984 17.6300 88.6000 25 -1 17.5100 88.6000 1 25 3 0
1984285N17089 1984 97 NI BB NOT_NAMED 1984-10-11 00:00:00 NR 17.7000 88.6000 main 346 337 O_________O___ jtwc_io IO021984 17.7000 88.6000 25 -1 17.7000 88.6000 1 25 3 4
1984285N17089 1984 97 NI BB NOT_NAMED 1984-10-11 03:00:00 NR 17.8519 88.6000 main 329 321 P_________P___ IO021984 17.8500 88.6000 27 -1 17.8537 88.6000 1 26 3 4
1984285N17089 1984 97 NI BB NOT_NAMED 1984-10-11 06:00:00 NR 17.9900 88.6000 main 321 314 O_________P___ jtwc_io IO021984 18.0000 88.6000 30 -1 17.9800 88.6000 1 27 2 0
1984285N17089 1984 97 NI BB NOT_NAMED 1984-10-11 09:00:00 NR 18.0994 88.6000 main 314 306 P_________P___ IO021984 18.1075 88.6000 30 -1 18.0912 88.6000 1 28 2 0
1984285N17089 1984 97 NI BB NOT_NAMED 1984-10-11 12:00:00 NR 18.2000 88.6000 main 306 299 O_________O___ jtwc_io IO021984 18.2000 88.6000 30 -1 18.2000 88.6000 1 30 2 0
1984285N17089 1984 97 NI BB NOT_NAMED 1984-10-11 15:00:00 NR 18.3088 88.6020 main 299 291 P_________P___ IO021984 18.2925 88.6000 32 -1 18.3250 88.6040 1 31 2 0
1984285N17089 1984 97 NI BB NOT_NAMED 1984-10-11 18:00:00 NR 18.4250 88.6037 main 291 275 O_________P___ jtwc_io IO021984 18.4000 88.6000 35 0 18.4500 88.6075 1 32 3 2
1984285N17089 1984 97 NI BB NOT_NAMED 1984-10-11 21:00:00 NR 18.5588 88.6036 main 275 267 P_________P___ IO021984 18.5425 88.6000 35 0 18.5750 88.6072 1 33 3 0
1984285N17089 1984 97 NI BB NOT_NAMED 1984-10-12 00:00:00 NR 18.7000 88.6000 main 267 260 O_________O___ jtwc_io IO021984 18.7000 88.6000 35 0 18.7000 88.6000 2 35 3 359
1984285N17089 1984 97 NI BB NOT_NAMED 1984-10-12 03:00:00 NR 18.8412 88.5969 main 260 246 P_________P___ IO021984 18.8575 88.6075 37 0 18.8250 88.5862 2 36 3 0
1984285N17089 1984 97 NI BB NOT_NAMED 1984-10-12 06:00:00 NR 18.9750 88.5825 main 246 231 O_________P___ jtwc_io IO021984 19.0000 88.6000 40 0 18.9500 88.5650 2 37 3 350
1984285N17089 1984 97 NI BB NOT_NAMED 1984-10-12 09:00:00 NR 19.0875 88.5469 main 231 224 P_________P___ IO021984 19.1000 88.5575 40 0 19.0750 88.5362 2 38 2 341
1984285N17089 1984 97 NI BB NOT_NAMED 1984-10-12 12:00:00 NR 19.2000 88.5000 main 224 219 O_________O___ jtwc_io IO021984 19.2000 88.5000 40 0 19.2000 88.5000 2 40 3 340
1984285N17089 1984 97 NI BB NOT_NAMED 1984-10-12 15:00:00 NR 19.3375 88.4576 main 219 198 P_________P___ IO021984 19.3500 88.4500 42 0 19.3250 88.4653 2 41 3 345
1984285N17089 1984 97 NI BB NOT_NAMED 1984-10-12 18:00:00 NR 19.4750 88.4112 main 198 191 O_________P___ jtwc_io IO021984 19.5000 88.4000 45 0 19.4500 88.4224 2 42 3 341
1984285N17089 1984 97 NI BB NOT_NAMED 1984-10-12 21:00:00 NR 19.5912 88.3629 main 191 175 P_________P___ IO021984 19.6075 88.3575 45 0 19.5750 88.3684 2 43 2 336
1984285N17089 1984 97 NI BB NOT_NAMED 1984-10-13 00:00:00 NR 19.7000 88.3000 main 175 160 O_________O___ jtwc_io IO021984 19.7000 88.3000 45 0 19.7000 88.3000 2 45 3 327
1984285N17089 1984 97 NI BB NOT_NAMED 1984-10-13 03:00:00 NR 19.8026 88.2149 main 160 145 P_________P___ IO021984 19.7925 88.2075 45 0 19.8128 88.2224 2 43 3 321
1984285N17089 1984 97 NI BB NOT_NAMED 1984-10-13 06:00:00 NR 19.9137 88.1149 main 145 130 O_________P___ jtwc_io IO021984 19.9000 88.1000 45 0 19.9275 88.1298 2 42 3 323
1984285N17089 1984 97 NI BB NOT_NAMED 1984-10-13 09:00:00 NR 20.0479 88.0112 main 130 109 P_________P___ IO021984 20.0425 88.0000 42 0 20.0534 88.0223 2 41 4 325
1984285N17089 1984 97 NI BB NOT_NAMED 1984-10-13 12:00:00 NR 20.2000 87.9000 main 109 94 O_________O___ jtwc_io IO021984 20.2000 87.9000 40 0 20.2000 87.9000 2 40 4 327
1984285N17089 1984 97 NI BB NOT_NAMED 1984-10-13 15:00:00 NR 20.3484 87.8056 main 94 76 P_________P___ IO021984 20.3350 87.8149 37 0 20.3619 87.7964 2 38 4 328
1984285N17089 1984 97 NI BB NOT_NAMED 1984-10-13 18:00:00 NR 20.5235 87.6871 main 76 52 O_________P___ jtwc_io IO021984 20.5000 87.7000 35 0 20.5471 87.6742 2 37 5 327
1984285N17089 1984 97 NI BB NOT_NAMED 1984-10-13 21:00:00 NR 20.7431 87.5261 main 52 38 P_________P___ IO021984 20.7274 87.5374 35 0 20.7587 87.5149 2 36 6 323
1984285N17089 1984 97 NI BB NOT_NAMED 1984-10-14 00:00:00 NR 21.0000 87.3000 main 38 10 O_________O___ jtwc_io IO021984 21.0000 87.3000 35 0 21.0000 87.3000 2 35 7 317
1984285N17089 1984 97 NI BB NOT_NAMED 1984-10-14 03:00:00 NR 21.2824 86.9946 main 10 0 P_________P___ IO021984 21.2925 86.9725 35 0 21.2722 87.0168 2 33 9 313
1984285N17089 1984 97 NI BB NOT_NAMED 1984-10-14 06:00:00 NR 21.5843 86.6385 main 0 0 O_________P___ jtwc_io IO021984 21.6000 86.6000 35 0 21.5686 86.6769 2 32 9 312
1984285N17089 1984 97 NI BB NOT_NAMED 1984-10-14 09:00:00 NR 21.8916 86.2706 main 0 0 P_________P___ IO021984 21.9026 86.2427 32 -1 21.8807 86.2986 2 31 9 312
1984285N17089 1984 97 NI BB NOT_NAMED 1984-10-14 12:00:00 NR 22.2000 85.9000 main 0 O_________O___ jtwc_io IO021984 22.2000 85.9000 30 -1 22.2000 85.9000 1 30 9 312

IBTrACS Databaseについて

本データベースは、米国NOAAが公開する1842年以降の世界の熱帯低気圧のベストトラックデータアーカイブInternational Best Track Archive for Climate Stewardship (IBTrACS)を、ウェブで閲覧しやすい形式に変換したものです。

最終更新日:2021-12-01